Time;durP1;ratioP1;P1;durP2;ratioP2;P2;SDS_P1;SDS_P2;PMS_P1;PMS_P2;Temp;Humidity;BMP_temperature;BMP_pressure;BME280_temperature;BME280_humidity;BME280_pressure;Samples;Min_cycle;Max_cycle;Signal;HPM_P1;HPM_P2
2021/01/25 00:00:11;;;;;;;10.13;5.00;;;;;;;2.06;91.73;98656.03;659758;218;24776;-75
2021/01/25 00:02:39;;;;;;;5.90;4.43;;;;;;;2.03;91.90;98655.48;643383;223;27064;-75
2021/01/25 00:05:08;;;;;;;6.77;4.60;;;;;;;1.96;92.30;98655.18;643710;218;28953;-76
2021/01/25 00:07:36;;;;;;;13.93;4.70;;;;;;;1.88;92.88;98657.59;648634;219;24750;-75
2021/01/25 00:10:05;;;;;;;7.17;4.47;;;;;;;1.99;92.86;98651.57;645490;222;24745;-75
2021/01/25 00:12:33;;;;;;;5.93;4.00;;;;;;;1.94;93.24;98647.28;640103;223;24809;-74
2021/01/25 00:15:01;;;;;;;6.53;4.60;;;;;;;1.93;93.25;98641.34;655864;218;24781;-75
2021/01/25 00:17:29;;;;;;;6.70;5.40;;;;;;;1.91;93.42;98646.27;639706;223;24786;-75
2021/01/25 00:19:57;;;;;;;7.10;4.50;;;;;;;1.90;93.58;98640.33;652036;218;24747;-75
2021/01/25 00:22:25;;;;;;;6.67;5.00;;;;;;;1.95;93.53;98630.96;641334;223;24808;-75
2021/01/25 00:24:53;;;;;;;7.20;5.10;;;;;;;1.75;94.13;98630.89;641273;223;24816;-75
2021/01/25 00:27:20;;;;;;;10.30;5.50;;;;;;;1.72;94.33;98627.79;641861;222;25034;-75
2021/01/25 00:29:48;;;;;;;7.33;5.60;;;;;;;1.65;94.89;98633.88;656143;217;24845;-75
2021/01/25 00:32:16;;;;;;;7.67;4.90;;;;;;;1.75;95.04;98629.61;655473;218;24770;-75
2021/01/25 00:34:44;;;;;;;5.23;4.40;;;;;;;1.83;94.98;98626.42;652811;218;24772;-75
2021/01/25 00:37:12;;;;;;;7.87;5.67;;;;;;;2.00;94.41;98616.83;653736;219;24757;-75
2021/01/25 00:39:40;;;;;;;6.27;5.10;;;;;;;1.99;94.28;98612.64;659652;218;24770;-75
2021/01/25 00:42:08;;;;;;;5.90;4.87;;;;;;;1.82;94.43;98617.55;655693;218;24983;-76
2021/01/25 00:44:36;;;;;;;7.87;4.80;;;;;;;1.63;95.24;98614.45;639203;223;24783;-74
2021/01/25 00:47:04;;;;;;;6.20;5.20;;;;;;;1.56;96.21;98614.17;654786;218;24746;-74
2021/01/25 00:49:32;;;;;;;5.20;4.70;;;;;;;1.76;96.10;98608.17;653004;218;24758;-74
2021/01/25 00:52:00;;;;;;;7.23;5.30;;;;;;;1.55;96.46;98609.14;656759;218;24738;-77
2021/01/25 00:54:28;;;;;;;6.33;5.10;;;;;;;1.82;95.66;98606.83;647129;218;32544;-76
2021/01/25 00:56:56;;;;;;;5.53;4.93;;;;;;;1.59;96.41;98604.13;636222;222;23662;-76
2021/01/25 00:59:24;;;;;;;7.57;4.47;;;;;;;1.54;96.39;98612.18;654052;218;24763;-76
2021/01/25 01:01:51;;;;;;;7.00;4.57;;;;;;;1.42;96.65;98606.82;641451;223;24949;-76
2021/01/25 01:04:19;;;;;;;5.63;4.67;;;;;;;1.76;95.86;98603.05;642593;223;24811;-76
2021/01/25 01:06:47;;;;;;;7.27;4.70;;;;;;;1.78;94.28;98598.59;640837;223;24782;-76
2021/01/25 01:09:15;;;;;;;7.27;4.40;;;;;;;1.80;93.08;98588.22;652987;219;24769;-76
2021/01/25 01:11:43;;;;;;;8.17;4.90;;;;;;;1.87;92.78;98596.21;647237;222;24752;-77
2021/01/25 01:14:11;;;;;;;7.90;4.47;;;;;;;1.79;92.80;98598.13;643371;222;24770;-76
2021/01/25 01:16:39;;;;;;;6.57;4.97;;;;;;;1.97;91.97;98594.47;640281;223;24791;-76
2021/01/25 01:19:07;;;;;;;5.57;4.40;;;;;;;1.95;92.13;98596.36;636042;223;24809;-76
2021/01/25 01:21:35;;;;;;;7.23;4.27;;;;;;;1.95;92.16;98601.48;653754;217;24751;-76
2021/01/25 01:24:04;;;;;;;6.00;3.87;;;;;;;1.96;92.01;98605.19;646754;221;25169;-76
2021/01/25 01:26:32;;;;;;;5.20;4.00;;;;;;;1.85;92.56;98607.07;645541;221;24782;-77
2021/01/25 01:29:00;;;;;;;6.20;3.53;;;;;;;1.92;92.42;98606.87;646645;221;24764;-77
2021/01/25 01:31:28;;;;;;;5.97;4.83;;;;;;;1.96;92.31;98607.75;645749;221;24810;-76
2021/01/25 01:33:56;;;;;;;6.57;4.30;;;;;;;1.85;92.25;98605.79;627672;221;24848;-76
2021/01/25 01:36:24;;;;;;;6.10;4.77;;;;;;;1.94;92.37;98607.08;650110;218;24756;-76
2021/01/25 01:38:52;;;;;;;6.90;4.60;;;;;;;1.88;91.83;98606.33;656251;215;24759;-77
2021/01/25 01:41:20;;;;;;;5.20;4.07;;;;;;;1.69;92.32;98601.95;658070;218;24799;-76
2021/01/25 01:43:48;;;;;;;8.20;4.20;;;;;;;1.71;92.68;98611.61;651579;218;24741;-76
2021/01/25 01:46:17;;;;;;;8.00;4.57;;;;;;;1.76;93.14;98615.05;637853;223;24826;-76
2021/01/25 01:48:44;;;;;;;4.53;3.80;;;;;;;1.83;93.05;98614.05;640687;222;24815;-77
2021/01/25 01:51:12;;;;;;;5.27;4.00;;;;;;;1.85;93.12;98612.20;635450;223;24807;-77
2021/01/25 01:53:40;;;;;;;5.60;3.90;;;;;;;1.96;93.01;98606.95;640998;222;24809;-76
2021/01/25 01:56:08;;;;;;;7.60;4.67;;;;;;;1.76;92.87;98606.89;639520;223;24774;-76
2021/01/25 01:58:36;;;;;;;5.33;3.83;;;;;;;1.74;93.27;98613.09;639354;223;24786;-76
2021/01/25 02:01:04;;;;;;;4.57;3.70;;;;;;;1.74;93.47;98605.41;651085;218;24812;-76
2021/01/25 02:03:32;;;;;;;4.90;3.80;;;;;;;1.70;93.91;98598.45;651017;219;24748;-76
2021/01/25 02:06:00;;;;;;;8.73;3.60;;;;;;;1.81;93.01;98598.00;640994;223;25742;-76
2021/01/25 02:08:28;;;;;;;5.90;4.40;;;;;;;1.66;94.10;98598.81;652010;220;24762;-76
2021/01/25 02:10:56;;;;;;;6.22;4.33;;;;;;;2.20;92.82;98607.42;635429;222;32713;-76
2021/01/25 02:13:24;;;;;;;5.80;4.40;;;;;;;1.75;93.43;98602.70;637158;223;23686;-76
2021/01/25 02:15:52;;;;;;;5.37;3.87;;;;;;;1.88;93.44;98601.67;636563;223;25107;-76
2021/01/25 02:18:20;;;;;;;4.70;3.97;;;;;;;1.75;93.81;98608.30;649591;218;24754;-76
2021/01/25 02:20:48;;;;;;;5.60;4.20;;;;;;;1.85;93.55;98608.35;658724;218;24767;-76
2021/01/25 02:23:32;;;;;;;6.10;4.57;;;;;;;1.88;93.68;98614.02;645897;221;24715;-77
2021/01/25 02:26:04;;;;;;;6.60;4.17;;;;;;;1.88;93.13;98602.95;639195;221;24858;-77
2021/01/25 02:28:32;;;;;;;5.73;3.87;;;;;;;1.98;93.07;98607.66;653746;218;25047;-77
2021/01/25 02:31:00;;;;;;;4.80;3.53;;;;;;;1.94;93.52;98604.52;641642;222;24836;-76
2021/01/25 02:33:28;;;;;;;4.97;3.97;;;;;;;2.03;93.10;98604.22;649864;221;24809;-77
2021/01/25 02:35:56;;;;;;;6.40;4.07;;;;;;;2.00;93.34;98605.77;637851;223;25163;-76
2021/01/25 02:38:24;;;;;;;5.30;4.10;;;;;;;2.48;91.61;98600.71;637662;223;32681;-77
2021/01/25 02:40:52;;;;;;;5.67;4.40;;;;;;;2.09;91.22;98591.67;640663;223;23698;-77
2021/01/25 02:43:20;;;;;;;6.73;4.20;;;;;;;2.22;91.71;98590.14;656230;218;24727;-76
2021/01/25 02:45:48;;;;;;;5.43;3.70;;;;;;;2.15;91.11;98588.26;638763;222;24601;-76
2021/01/25 02:48:16;;;;;;;6.20;4.10;;;;;;;2.17;90.71;98585.89;655342;216;24782;-76
2021/01/25 02:50:50;;;;;;;8.10;3.90;;;;;;;2.12;90.90;98583.40;657983;217;24758;-76
2021/01/25 02:53:18;;;;;;;6.63;3.70;;;;;;;2.08;90.87;98584.11;648477;218;24758;-76
2021/01/25 02:55:46;;;;;;;4.97;3.63;;;;;;;2.09;91.39;98587.02;654688;218;24752;-76
2021/01/25 02:58:14;;;;;;;5.60;3.33;;;;;;;2.21;91.14;98585.96;653071;218;24741;-76
2021/01/25 03:00:44;;;;;;;7.37;3.47;;;;;;;2.17;90.73;98582.52;651381;219;24812;-76
2021/01/25 03:03:12;;;;;;;4.40;3.93;;;;;;;2.17;91.08;98593.59;644930;222;24729;-76
2021/01/25 03:05:40;;;;;;;3.53;3.23;;;;;;;2.15;90.89;98589.54;639792;223;24799;-76
2021/01/25 03:08:09;;;;;;;4.03;3.30;;;;;;;2.05;90.97;98590.32;642028;222;24787;-76
2021/01/25 03:10:37;;;;;;;5.90;4.20;;;;;;;2.24;90.82;98592.10;640220;223;24803;-76
2021/01/25 03:13:05;;;;;;;6.50;4.50;;;;;;;2.41;90.48;98600.11;642806;223;24762;-76
2021/01/25 03:15:34;;;;;;;7.30;4.30;;;;;;;2.34;90.57;98599.34;640191;223;24819;-76
2021/01/25 03:18:02;;;;;;;7.03;4.13;;;;;;;2.22;90.81;98601.69;644886;223;24799;-76
2021/01/25 03:20:30;;;;;;;4.47;4.07;;;;;;;2.14;91.12;98605.40;640732;223;24819;-76
2021/01/25 03:22:58;;;;;;;9.10;5.40;;;;;;;2.36;91.18;98607.72;649567;218;24761;-76
2021/01/25 03:25:26;;;;;;;5.80;3.90;;;;;;;2.35;91.05;98609.95;649436;219;24774;-76
2021/01/25 03:27:54;;;;;;;6.30;4.33;;;;;;;2.18;91.63;98616.19;654587;219;24747;-76
2021/01/25 03:30:22;;;;;;;5.00;3.93;;;;;;;2.25;91.80;98618.12;656107;219;24731;-76
2021/01/25 03:32:50;;;;;;;8.40;4.90;;;;;;;2.18;92.12;98622.13;639853;223;26957;-75
2021/01/25 03:35:18;;;;;;;5.57;3.70;;;;;;;2.22;92.32;98617.55;636787;223;24789;-76
2021/01/25 03:37:46;;;;;;;6.27;4.07;;;;;;;2.15;92.50;98623.69;654281;218;25083;-76
2021/01/25 03:40:14;;;;;;;4.50;4.10;;;;;;;2.00;93.62;98624.52;642161;223;24785;-76
2021/01/25 03:42:42;;;;;;;5.30;3.93;;;;;;;2.16;92.96;98623.21;637502;223;24803;-76
2021/01/25 03:45:11;;;;;;;5.80;4.90;;;;;;;2.13;93.40;98626.05;651987;218;24740;-76
2021/01/25 03:47:38;;;;;;;4.60;4.20;;;;;;;2.07;93.38;98626.89;643600;223;27999;-76
2021/01/25 03:50:07;;;;;;;8.13;4.97;;;;;;;2.07;93.62;98625.61;651030;220;24805;-75
2021/01/25 03:52:35;;;;;;;6.70;5.27;;;;;;;2.43;93.39;98624.69;651358;218;32510;-75
2021/01/25 03:55:03;;;;;;;7.93;5.10;;;;;;;2.05;93.63;98621.08;654746;218;24738;-77
2021/01/25 03:57:31;;;;;;;5.00;4.50;;;;;;;2.16;93.68;98627.06;658215;218;24732;-75
2021/01/25 03:59:59;;;;;;;6.93;5.30;;;;;;;2.01;94.17;98633.83;652280;217;24754;-77
2021/01/25 04:02:27;;;;;;;6.30;5.07;;;;;;;2.01;94.82;98633.02;650134;217;24750;-77
2021/01/25 04:04:55;;;;;;;9.33;4.80;;;;;;;1.98;94.83;98633.29;651025;218;24774;-75
2021/01/25 04:07:23;;;;;;;7.33;5.78;;;;;;;2.50;94.21;98636.50;642044;216;32491;-75
2021/01/25 04:09:51;;;;;;;8.50;5.80;;;;;;;1.92;94.75;98629.95;647192;218;23646;-75
2021/01/25 04:12:19;;;;;;;6.53;5.83;;;;;;;1.98;95.62;98632.81;654150;218;24782;-75
2021/01/25 04:14:47;;;;;;;9.20;5.80;;;;;;;1.92;95.88;98643.57;651361;218;24788;-75
2021/01/25 04:17:15;;;;;;;6.13;5.00;;;;;;;1.80;96.39;98645.88;654266;218;24825;-74
2021/01/25 04:19:43;;;;;;;5.90;5.13;;;;;;;1.89;96.32;98646.88;657487;218;25005;-76
2021/01/25 04:22:11;;;;;;;7.00;4.90;;;;;;;1.67;96.80;98646.09;648583;218;24770;-76
2021/01/25 04:24:38;;;;;;;6.47;4.43;;;;;;;1.58;97.12;98640.94;656824;218;24782;-75
2021/01/25 04:27:10;;;;;;;5.97;4.57;;;;;;;1.57;97.60;98651.66;645507;218;24762;-75
2021/01/25 04:29:35;;;;;;;6.27;4.90;;;;;;;1.50;98.48;98649.24;646998;222;24809;-77
2021/01/25 04:32:03;;;;;;;6.83;5.00;;;;;;;1.85;97.52;98645.52;640858;223;24790;-75
2021/01/25 04:34:30;;;;;;;12.47;4.93;;;;;;;1.88;96.86;98637.56;648101;218;25835;-75
2021/01/25 04:36:58;;;;;;;7.00;5.40;;;;;;;1.90;97.07;98639.52;639530;222;24796;-74
2021/01/25 04:39:26;;;;;;;5.87;5.23;;;;;;;1.77;96.88;98638.45;641607;223;24806;-75
2021/01/25 04:41:54;;;;;;;5.73;5.13;;;;;;;1.61;97.10;98636.83;639813;223;24799;-75
2021/01/25 04:44:23;;;;;;;6.40;4.93;;;;;;;1.64;97.08;98645.54;640403;222;24775;-75
2021/01/25 04:46:51;;;;;;;5.70;5.00;;;;;;;1.52;97.61;98648.64;637782;223;24792;-75
2021/01/25 04:49:19;;;;;;;5.63;5.00;;;;;;;1.47;98.38;98650.78;654116;218;24909;-74
2021/01/25 04:51:47;;;;;;;5.87;4.63;;;;;;;1.62;98.26;98652.08;654910;218;24741;-74
2021/01/25 04:54:15;;;;;;;8.60;5.40;;;;;;;1.68;98.03;98653.30;640904;223;24841;-75
2021/01/25 04:56:43;;;;;;;7.17;6.20;;;;;;;2.27;96.61;98652.13;632734;223;32745;-73
2021/01/25 04:59:10;;;;;;;10.23;6.40;;;;;;;2.47;94.99;98636.77;653131;218;32819;-73
2021/01/25 05:01:39;;;;;;;7.77;5.80;;;;;;;2.01;96.05;98645.37;641485;223;23672;-73
2021/01/25 05:04:06;;;;;;;8.17;5.60;;;;;;;1.78;97.03;98649.85;639136;223;24797;-73
2021/01/25 05:06:34;;;;;;;7.73;5.60;;;;;;;1.90;96.88;98653.15;642649;223;24792;-73
2021/01/25 05:09:02;;;;;;;5.63;4.80;;;;;;;1.88;97.50;98655.50;652023;218;24829;-73
2021/01/25 05:11:30;;;;;;;6.63;5.50;;;;;;;1.95;96.92;98654.03;657212;216;24760;-73
2021/01/25 05:14:03;;;;;;;7.27;6.20;;;;;;;1.99;96.83;98651.57;658803;217;24791;-74
2021/01/25 05:16:31;;;;;;;7.27;5.70;;;;;;;1.90;97.12;98649.77;654919;218;24767;-74
2021/01/25 05:18:59;;;;;;;6.00;5.40;;;;;;;1.93;97.52;98650.79;659557;218;24833;-74
2021/01/25 05:21:34;;;;;;;6.50;5.43;;;;;;;1.88;97.51;98658.87;655205;218;24757;-73
2021/01/25 05:24:05;;;;;;;7.03;4.97;;;;;;;1.88;97.28;98656.31;643974;222;24790;-74
2021/01/25 05:26:33;;;;;;;6.10;5.50;;;;;;;1.83;97.65;98664.02;649263;219;25043;-75
2021/01/25 05:29:01;;;;;;;6.60;5.40;;;;;;;1.87;97.27;98659.01;641115;223;24861;-79
2021/01/25 05:31:29;;;;;;;8.50;5.57;;;;;;;1.86;97.26;98659.95;639611;223;32312;-76
2021/01/25 05:33:57;;;;;;;6.90;5.40;;;;;;;1.66;97.81;98666.25;640392;223;24809;-76
2021/01/25 05:36:26;;;;;;;7.60;5.40;;;;;;;1.61;98.22;98672.70;640428;223;24800;-76
2021/01/25 05:38:54;;;;;;;6.47;5.13;;;;;;;1.59;98.21;98670.73;640254;223;26935;-75
2021/01/25 05:41:22;;;;;;;6.60;5.40;;;;;;;1.58;98.63;98670.40;641060;223;24840;-75
2021/01/25 05:43:50;;;;;;;7.92;6.37;;;;;;;2.16;97.55;98669.38;645382;218;32832;-76
2021/01/25 05:46:18;;;;;;;7.15;6.12;;;;;;;2.38;95.29;98658.41;635867;222;31965;-76
2021/01/25 05:48:57;;;;;;;7.67;5.83;;;;;;;1.92;96.76;98664.55;640314;221;23679;-76
2021/01/25 05:51:26;;;;;;;8.17;5.37;;;;;;;1.66;97.93;98671.84;652045;220;24773;-76
2021/01/25 05:53:54;;;;;;;6.77;5.27;;;;;;;1.60;98.05;98669.80;648767;220;24766;-76
2021/01/25 05:56:22;;;;;;;4.90;4.43;;;;;;;1.54;98.44;98673.66;650350;220;24746;-76
2021/01/25 05:58:51;;;;;;;10.10;5.33;;;;;;;1.57;99.26;98676.46;651744;219;24743;-76
2021/01/25 06:01:20;;;;;;;7.33;5.83;;;;;;;1.72;99.30;98682.41;641127;223;24795;-76
2021/01/25 06:03:48;;;;;;;7.07;5.67;;;;;;;1.74;98.78;98677.97;639151;223;24865;-75
2021/01/25 06:06:17;;;;;;;9.73;5.67;;;;;;;1.76;99.21;98679.11;644380;223;24794;-76
2021/01/25 06:08:51;;;;;;;8.30;5.80;;;;;;;1.92;98.77;98674.80;653802;218;24767;-76
2021/01/25 06:11:20;;;;;;;11.97;7.47;;;;;;;1.85;98.44;98686.05;638319;222;24612;-76
2021/01/25 06:13:53;;;;;;;12.80;7.90;;;;;;;1.66;98.71;98684.65;639430;222;24813;-76
2021/01/25 06:16:22;;;;;;;9.87;5.90;;;;;;;1.61;98.97;98687.60;646161;218;28019;-76
2021/01/25 06:18:50;;;;;;;6.77;5.87;;;;;;;1.65;99.36;98686.41;654139;219;24737;-76
2021/01/25 06:21:19;;;;;;;14.07;9.60;;;;;;;1.63;99.53;98690.03;642039;221;26962;-76
2021/01/25 06:23:46;;;;;;;14.50;9.00;;;;;;;1.71;99.08;98689.76;641927;222;24853;-76
2021/01/25 06:26:15;;;;;;;16.43;9.20;;;;;;;1.59;99.03;98693.33;640239;222;24814;-75
2021/01/25 06:28:43;;;;;;;9.95;6.62;;;;;;;1.98;97.86;98690.97;650090;218;32605;-76
2021/01/25 06:31:11;;;;;;;7.43;6.43;;;;;;;1.46;98.78;98699.11;654643;218;23643;-76
2021/01/25 06:33:39;;;;;;;6.73;6.03;;;;;;;1.37;99.76;98712.65;642424;221;24661;-75
2021/01/25 06:36:08;;;;;;;12.30;7.30;;;;;;;1.29;100.00;98713.75;642760;223;24787;-75
2021/01/25 06:38:37;;;;;;;10.90;8.20;;;;;;;1.24;100.00;98715.85;643798;223;24817;-76
2021/01/25 06:41:09;;;;;;;10.90;7.80;;;;;;;1.28;100.00;98712.94;656647;218;24791;-75
2021/01/25 06:43:38;;;;;;;12.00;8.10;;;;;;;1.34;100.00;98719.30;655930;218;24769;-76
2021/01/25 06:46:06;;;;;;;18.37;11.28;;;;;;;2.14;99.33;98710.53;648236;218;32635;-76
2021/01/25 06:48:34;;;;;;;14.47;10.63;;;;;;;1.80;98.82;98715.07;652305;218;23614;-75
2021/01/25 06:51:04;;;;;;;13.20;9.20;;;;;;;1.54;99.96;98724.89;649668;218;26868;-75
2021/01/25 06:53:32;;;;;;;10.37;8.17;;;;;;;1.51;100.00;98727.71;649183;218;24766;-75
2021/01/25 06:55:59;;;;;;;12.53;8.33;;;;;;;1.67;100.00;98725.98;645756;222;24806;-75
2021/01/25 06:58:29;;;;;;;12.30;7.93;;;;;;;1.72;100.00;98728.53;640650;223;24831;-75
2021/01/25 07:00:57;;;;;;;10.80;7.17;;;;;;;1.77;100.00;98725.58;649754;219;24770;-76
2021/01/25 07:03:25;;;;;;;9.97;6.67;;;;;;;1.89;99.87;98737.39;642884;223;24813;-76
2021/01/25 07:05:53;;;;;;;10.93;6.67;;;;;;;1.88;99.60;98739.61;637600;223;24899;-76
2021/01/25 07:08:22;;;;;;;11.87;7.03;;;;;;;1.92;100.00;98742.26;644697;221;25102;-75
2021/01/25 07:10:55;;;;;;;11.53;8.30;;;;;;;2.48;98.03;98744.86;643478;218;32656;-76
2021/01/25 07:13:23;;;;;;;13.53;7.17;;;;;;;2.21;98.26;98748.80;655123;218;23697;-76
2021/01/25 07:15:52;;;;;;;10.97;7.70;;;;;;;2.24;98.37;98752.39;658165;218;24758;-75
2021/01/25 07:18:21;;;;;;;9.90;7.13;;;;;;;2.14;98.21;98754.12;637626;223;24801;-75
2021/01/25 07:20:49;;;;;;;8.37;6.50;;;;;;;1.99;98.87;98756.68;640377;222;24801;-76
2021/01/25 07:23:18;;;;;;;12.00;7.20;;;;;;;2.11;99.53;98762.05;654116;218;24773;-75
2021/01/25 07:25:47;;;;;;;10.63;6.97;;;;;;;2.21;98.74;98756.50;636189;221;24817;-75
2021/01/25 07:28:15;;;;;;;11.57;7.93;;;;;;;2.14;99.17;98761.00;643156;219;24767;-75
2021/01/25 07:30:43;;;;;;;10.77;7.33;;;;;;;2.09;99.19;98765.21;642660;222;24795;-75
2021/01/25 07:33:11;;;;;;;11.43;7.90;;;;;;;2.22;99.17;98770.95;639775;222;24775;-75
2021/01/25 07:35:40;;;;;;;12.98;10.18;;;;;;;2.61;98.13;98763.41;634631;222;32687;-76
2021/01/25 07:38:07;;;;;;;13.70;8.83;;;;;;;2.27;99.05;98766.27;654329;217;23647;-75
2021/01/25 07:40:35;;;;;;;11.30;8.07;;;;;;;2.33;99.02;98779.03;639198;221;27951;-75
2021/01/25 07:43:04;;;;;;;12.47;7.53;;;;;;;1.98;100.00;98775.09;653275;218;32255;-75
2021/01/25 07:45:31;;;;;;;9.97;7.63;;;;;;;2.13;100.00;98782.46;659597;217;27956;-73
2021/01/25 07:47:59;;;;;;;14.27;7.80;;;;;;;1.84;100.00;98787.42;659436;218;24742;-72
2021/01/25 07:50:27;;;;;;;9.70;7.20;;;;;;;2.05;100.00;98790.77;653112;218;24769;-73
2021/01/25 07:52:59;;;;;;;10.97;7.20;;;;;;;1.95;100.00;98789.42;647073;221;24798;-73
2021/01/25 07:55:27;;;;;;;9.50;7.30;;;;;;;1.95;100.00;98801.43;641894;223;24821;-73
2021/01/25 07:58:00;;;;;;;9.03;7.03;;;;;;;1.88;100.00;98801.59;652081;218;24935;-73
2021/01/25 08:00:23;;;;;;;10.77;7.73;;;;;;;1.61;100.00;98805.45;633891;222;24801;-73
2021/01/25 08:02:55;;;;;;;12.43;8.00;;;;;;;1.75;100.00;98807.72;655385;219;26971;-73
2021/01/25 08:05:23;;;;;;;11.93;7.53;;;;;;;1.81;100.00;98811.99;659487;218;26967;-73
2021/01/25 08:07:51;;;;;;;11.30;8.80;;;;;;;2.22;100.00;98814.55;634807;223;32751;-73
2021/01/25 08:10:19;;;;;;;11.00;8.37;;;;;;;1.89;100.00;98815.56;655722;219;26809;-73
2021/01/25 08:12:47;;;;;;;12.17;8.50;;;;;;;1.99;100.00;98816.92;642317;223;24792;-73
2021/01/25 08:15:18;;;;;;;10.50;7.23;;;;;;;1.96;100.00;98823.56;653407;218;24962;-73
2021/01/25 08:17:47;;;;;;;10.40;7.90;;;;;;;1.94;100.00;98829.28;651216;218;24805;-73
2021/01/25 08:20:15;;;;;;;13.58;10.10;;;;;;;2.23;100.00;98825.14;643934;218;32568;-73
2021/01/25 08:22:43;;;;;;;12.13;9.23;;;;;;;2.14;100.00;98828.48;654009;218;23675;-73
2021/01/25 08:25:16;;;;;;;12.13;8.30;;;;;;;2.08;100.00;98833.63;637947;222;24804;-73
2021/01/25 08:27:43;;;;;;;10.03;7.80;;;;;;;2.02;100.00;98837.17;652206;218;24746;-73
2021/01/25 08:30:13;;;;;;;11.10;8.70;;;;;;;2.03;100.00;98841.37;642894;223;24915;-73
2021/01/25 08:32:41;;;;;;;12.27;8.13;;;;;;;2.29;100.00;98838.77;643793;223;24773;-73
2021/01/25 08:35:09;;;;;;;11.40;8.00;;;;;;;2.21;100.00;98847.55;651245;219;25786;-73
2021/01/25 08:37:37;;;;;;;9.63;7.00;;;;;;;2.08;100.00;98854.61;647159;222;24596;-73
2021/01/25 08:40:11;;;;;;;11.10;7.83;;;;;;;2.24;100.00;98854.98;656266;219;24722;-73
2021/01/25 08:42:39;;;;;;;11.60;8.40;;;;;;;2.05;100.00;98860.80;643025;223;24812;-75
2021/01/25 08:45:08;;;;;;;14.65;11.08;;;;;;;2.55;100.00;98863.55;629392;223;33364;-75
2021/01/25 08:47:36;;;;;;;11.80;9.43;;;;;;;2.40;100.00;98868.66;642473;221;23694;-73
2021/01/25 08:50:15;;;;;;;11.50;9.23;;;;;;;2.13;100.00;98873.48;651938;218;24769;-73
2021/01/25 08:52:44;;;;;;;15.13;9.87;;;;;;;2.02;100.00;98878.20;651768;218;27948;-73
2021/01/25 08:55:12;;;;;;;14.03;9.90;;;;;;;1.93;100.00;98876.36;644174;222;24816;-73
2021/01/25 08:57:40;;;;;;;11.77;9.27;;;;;;;2.08;100.00;98879.78;642933;222;24823;-73
2021/01/25 09:00:12;;;;;;;15.67;10.20;;;;;;;2.19;100.00;98878.92;654053;218;24766;-73
2021/01/25 09:02:40;;;;;;;14.43;9.50;;;;;;;2.23;100.00;98876.44;651465;218;25094;-73
2021/01/25 09:05:10;;;;;;;11.90;8.27;;;;;;;2.28;100.00;98883.78;640339;221;25992;-73
2021/01/25 09:07:37;;;;;;;12.83;8.77;;;;;;;2.42;100.00;98885.21;641489;220;24833;-73
2021/01/25 09:10:07;;;;;;;10.87;8.47;;;;;;;2.51;100.00;98889.56;646544;221;25972;-73
2021/01/25 09:12:35;;;;;;;10.60;8.40;;;;;;;2.63;100.00;98891.12;646609;221;24799;-73
2021/01/25 09:15:03;;;;;;;13.50;9.23;;;;;;;2.65;100.00;98896.93;639991;221;24859;-73
2021/01/25 09:17:31;;;;;;;15.30;9.70;;;;;;;2.19;100.00;98905.84;644480;223;24828;-73
2021/01/25 09:19:58;;;;;;;13.13;9.13;;;;;;;2.27;100.00;98908.61;655465;218;24773;-73
2021/01/25 09:22:27;;;;;;;10.23;8.50;;;;;;;2.34;100.00;98908.44;648253;219;24763;-73
2021/01/25 09:24:55;;;;;;;11.50;8.80;;;;;;;2.34;100.00;98918.70;651884;218;27935;-73
2021/01/25 09:27:23;;;;;;;13.17;9.00;;;;;;;2.67;100.00;98916.86;653209;218;24764;-72
2021/01/25 09:29:51;;;;;;;12.30;8.83;;;;;;;2.38;100.00;98926.48;647497;221;24725;-72
2021/01/25 09:32:19;;;;;;;11.83;8.97;;;;;;;2.51;100.00;98928.86;652964;219;24741;-73
2021/01/25 09:34:48;;;;;;;11.70;8.93;;;;;;;2.48;100.00;98928.31;650420;219;24765;-73
2021/01/25 09:37:14;;;;;;;10.73;8.00;;;;;;;2.61;100.00;98940.01;655072;219;25884;-73
2021/01/25 09:39:42;;;;;;;10.93;7.20;;;;;;;2.85;100.00;98947.91;640205;223;24835;-73
2021/01/25 09:42:10;;;;;;;8.73;7.70;;;;;;;2.72;100.00;98948.59;643712;223;24803;-73
2021/01/25 09:44:38;;;;;;;8.40;7.30;;;;;;;2.71;100.00;98952.91;640987;222;24792;-73
2021/01/25 09:47:06;;;;;;;8.30;7.20;;;;;;;2.56;100.00;98954.17;652071;219;24773;-73
2021/01/25 09:49:34;;;;;;;11.37;7.80;;;;;;;2.29;100.00;98967.48;654618;218;24753;-73
2021/01/25 09:52:02;;;;;;;11.10;8.40;;;;;;;1.89;100.00;98964.24;641222;221;24798;-72
2021/01/25 09:54:30;;;;;;;12.20;10.40;;;;;;;2.08;100.00;98969.53;634857;223;32688;-73
2021/01/25 09:56:58;;;;;;;13.73;9.80;;;;;;;1.89;100.00;98974.96;640062;223;30112;-73
2021/01/25 09:59:26;;;;;;;12.20;9.07;;;;;;;1.91;100.00;98982.06;657297;217;24866;-73
2021/01/25 10:01:54;;;;;;;11.93;9.10;;;;;;;2.05;100.00;98980.03;640854;221;24804;-75
2021/01/25 10:04:22;;;;;;;11.70;8.50;;;;;;;2.15;100.00;98978.84;642240;223;24811;-75
2021/01/25 10:06:50;;;;;;;11.70;8.73;;;;;;;2.47;100.00;98980.56;652298;218;24772;-73
2021/01/25 10:09:18;;;;;;;16.20;8.77;;;;;;;2.43;100.00;98986.42;641374;223;24851;-73
2021/01/25 10:11:45;;;;;;;12.80;10.93;;;;;;;2.59;100.00;98986.80;632995;223;33055;-73
2021/01/25 10:14:14;;;;;;;13.72;12.05;;;;;;;2.56;100.00;98996.04;646231;218;32639;-73
2021/01/25 10:16:42;;;;;;;13.60;10.50;;;;;;;2.43;100.00;98999.72;655325;217;23632;-72
2021/01/25 10:19:10;;;;;;;13.17;9.37;;;;;;;2.21;100.00;99000.14;654154;218;24746;-72
2021/01/25 10:21:38;;;;;;;13.50;10.13;;;;;;;2.11;100.00;98999.23;653760;218;24766;-73
2021/01/25 10:24:07;;;;;;;11.40;9.00;;;;;;;2.19;100.00;99005.05;645550;218;24776;-72
2021/01/25 10:26:34;;;;;;;13.43;10.03;;;;;;;2.14;100.00;99013.13;638781;222;24888;-72
2021/01/25 10:29:02;;;;;;;13.10;11.48;;;;;;;2.28;100.00;99017.16;634843;223;33003;-72
2021/01/25 10:31:30;;;;;;;12.75;11.03;;;;;;;2.34;100.00;99016.19;649392;218;32605;-73
2021/01/25 10:33:58;;;;;;;12.10;9.53;;;;;;;2.28;100.00;99023.09;644003;222;23642;-72
2021/01/25 10:36:26;;;;;;;11.30;9.30;;;;;;;2.18;100.00;99022.19;642166;222;24815;-72
2021/01/25 10:38:54;;;;;;;11.90;9.10;;;;;;;2.08;100.00;99021.28;638182;222;24814;-72
2021/01/25 10:41:22;;;;;;;11.20;8.70;;;;;;;2.00;100.00;99023.65;644512;223;24822;-72
2021/01/25 10:43:50;;;;;;;12.30;8.73;;;;;;;1.98;100.00;99033.22;640636;223;24823;-72
2021/01/25 10:46:18;;;;;;;12.58;10.20;;;;;;;2.19;100.00;99043.52;642055;218;32659;-73
2021/01/25 10:48:46;;;;;;;12.40;10.95;;;;;;;2.14;100.00;99043.08;648092;218;32588;-73
2021/01/25 10:51:14;;;;;;;12.73;10.50;;;;;;;2.07;100.00;99044.01;642018;223;23695;-72
2021/01/25 10:53:42;;;;;;;10.87;9.10;;;;;;;2.20;100.00;99045.14;640019;223;24814;-72
2021/01/25 10:56:10;;;;;;;13.57;9.40;;;;;;;2.11;100.00;99051.80;650343;218;24759;-72
2021/01/25 10:58:38;;;;;;;17.80;12.10;;;;;;;2.18;100.00;99063.22;643833;223;24853;-73
2021/01/25 11:01:07;;;;;;;13.13;9.80;;;;;;;2.05;100.00;99058.70;636007;223;24801;-72
2021/01/25 11:03:36;;;;;;;13.62;10.68;;;;;;;2.21;100.00;99066.83;635277;224;32798;-72
2021/01/25 11:06:02;;;;;;;13.57;10.77;;;;;;;2.21;100.00;99068.11;640428;223;23669;-74
2021/01/25 11:08:30;;;;;;;12.00;10.00;;;;;;;2.14;100.00;99071.29;645329;218;32613;-74
2021/01/25 11:10:57;;;;;;;12.13;9.53;;;;;;;2.19;100.00;99069.98;640810;222;23710;-75
2021/01/25 11:13:26;;;;;;;12.63;9.85;;;;;;;2.29;100.00;99074.74;632715;222;32712;-75
2021/01/25 11:15:54;;;;;;;14.60;8.87;;;;;;;2.33;100.00;99068.42;638482;221;23699;-75
2021/01/25 11:18:23;;;;;;;12.40;8.67;;;;;;;2.51;100.00;99073.84;641434;223;24827;-75
2021/01/25 11:20:50;;;;;;;10.90;8.37;;;;;;;2.73;100.00;99076.80;654150;218;24774;-75
2021/01/25 11:23:19;;;;;;;9.60;7.37;;;;;;;2.82;100.00;99074.78;638202;222;24847;-75
2021/01/25 11:25:47;;;;;;;9.23;7.03;;;;;;;2.89;100.00;99082.32;641023;223;29058;-75
2021/01/25 11:28:14;;;;;;;8.60;6.97;;;;;;;3.04;100.00;99078.16;644781;223;25847;-75
2021/01/25 11:30:43;;;;;;;11.80;7.90;;;;;;;3.00;100.00;99083.20;658597;218;24758;-75
2021/01/25 11:33:11;;;;;;;9.10;6.73;;;;;;;3.09;100.00;99089.67;639880;223;24817;-75
2021/01/25 11:35:39;;;;;;;9.73;7.03;;;;;;;3.17;100.00;99087.77;659955;218;24748;-74
2021/01/25 11:38:07;;;;;;;8.97;7.20;;;;;;;3.19;100.00;99091.03;639227;223;24782;-75